createdAt,value
2023-05-14T00:00:27.813Z,73.10
2023-05-14T00:02:56.040Z,73.20
2023-05-14T00:05:24.652Z,73.40
2023-05-14T00:07:52.789Z,73.40
2023-05-14T00:10:22.030Z,73.30
2023-05-14T00:12:51.786Z,73.50
2023-05-14T00:15:19.982Z,73.70
2023-05-14T00:17:48.138Z,73.70
2023-05-14T00:20:16.549Z,74.00
2023-05-14T00:22:44.728Z,73.90
2023-05-14T00:25:12.898Z,74.10
2023-05-14T00:27:41.083Z,74.10
2023-05-14T00:30:11.147Z,74.00
2023-05-14T00:32:39.366Z,73.90
2023-05-14T00:35:07.789Z,74.00
2023-05-14T00:37:36.376Z,74.10
2023-05-14T00:40:06.689Z,74.10
2023-05-14T00:42:34.808Z,74.30
2023-05-14T00:45:03.042Z,74.40
2023-05-14T00:47:33.443Z,74.60
2023-05-14T00:50:01.705Z,74.50
2023-05-14T00:52:29.878Z,74.20
2023-05-14T00:54:58.112Z,74.60
2023-05-14T00:57:26.244Z,74.60
2023-05-14T00:59:54.525Z,74.60
2023-05-14T01:02:22.891Z,74.50
2023-05-14T01:04:52.881Z,74.40
2023-05-14T01:07:24.916Z,74.30
2023-05-14T01:09:54.957Z,74.30
2023-05-14T01:12:28.287Z,74.30
2023-05-14T01:14:59.704Z,74.40
2023-05-14T01:17:29.403Z,74.40
2023-05-14T01:19:59.119Z,74.10
2023-05-14T01:22:28.641Z,74.00
2023-05-14T01:24:56.947Z,73.80
2023-05-14T01:27:27.101Z,74.20
2023-05-14T01:29:59.296Z,74.80
2023-05-14T01:32:28.371Z,74.10
2023-05-14T01:34:57.984Z,74.10
2023-05-14T01:37:27.141Z,74.10
2023-05-14T01:39:56.871Z,74.10
2023-05-14T01:42:25.002Z,74.10
2023-05-14T01:44:53.331Z,74.20
2023-05-14T01:47:21.431Z,74.00
2023-05-14T01:49:49.605Z,74.00
2023-05-14T01:52:20.934Z,74.10
2023-05-14T01:54:49.445Z,74.20
2023-05-14T01:57:18.930Z,74.20
2023-05-14T01:59:47.008Z,74.60
2023-05-14T02:02:15.222Z,74.30
2023-05-14T02:04:43.354Z,74.40
2023-05-14T02:07:11.505Z,74.30
2023-05-14T02:09:40.145Z,74.20
2023-05-14T02:12:08.947Z,74.30
2023-05-14T02:14:38.802Z,74.50
2023-05-14T02:17:06.971Z,74.20
2023-05-14T02:19:35.115Z,74.50
2023-05-14T02:22:03.317Z,74.40
2023-05-14T02:24:31.484Z,74.40
2023-05-14T02:27:01.204Z,74.40
2023-05-14T02:29:29.382Z,74.30
2023-05-14T02:31:59.082Z,74.30
2023-05-14T02:34:27.279Z,74.30
2023-05-14T02:36:55.697Z,74.40
2023-05-14T02:39:23.844Z,74.40
2023-05-14T02:41:51.935Z,74.30
2023-05-14T02:44:20.086Z,74.30
2023-05-14T02:46:48.528Z,74.50
2023-05-14T02:49:18.070Z,74.70
2023-05-14T02:51:46.180Z,74.70
2023-05-14T02:54:16.364Z,74.80
2023-05-14T02:56:44.534Z,74.50
2023-05-14T02:59:12.657Z,74.50
2023-05-14T03:01:41.365Z,74.40
2023-05-14T03:04:10.043Z,74.50
2023-05-14T03:06:39.582Z,74.60
2023-05-14T03:09:08.071Z,74.70
2023-05-14T03:11:36.428Z,74.80
2023-05-14T03:14:04.540Z,75.10
2023-05-14T03:16:32.749Z,75.20
2023-05-14T03:19:00.968Z,75.50
2023-05-14T03:21:29.122Z,75.60
2023-05-14T03:23:58.749Z,76.00
2023-05-14T03:26:26.888Z,76.20
2023-05-14T03:28:54.989Z,76.20
2023-05-14T03:31:23.216Z,76.20
2023-05-14T03:33:51.437Z,76.40
2023-05-14T03:36:19.587Z,76.50
2023-05-14T03:38:47.707Z,76.50
2023-05-14T03:41:18.512Z,76.30
2023-05-14T03:43:46.672Z,76.50
2023-05-14T03:46:14.838Z,76.60
2023-05-14T03:48:43.063Z,76.60
2023-05-14T03:51:11.240Z,76.70
2023-05-14T03:53:39.484Z,76.60
2023-05-14T03:56:07.685Z,76.60
2023-05-14T03:58:37.174Z,76.70
2023-05-14T04:01:05.438Z,76.10
2023-05-14T04:03:33.691Z,76.60
2023-05-14T04:06:02.340Z,76.50
2023-05-14T04:08:30.568Z,76.60
2023-05-14T04:10:58.662Z,76.40
2023-05-14T04:13:26.838Z,76.30
2023-05-14T04:15:56.412Z,76.10
2023-05-14T04:18:24.660Z,76.00
2023-05-14T04:20:52.797Z,76.00
2023-05-14T04:23:21.696Z,76.00
2023-05-14T04:25:50.090Z,75.90
2023-05-14T04:28:18.217Z,75.40
2023-05-14T04:30:46.730Z,75.10
2023-05-14T04:33:16.326Z,74.90
2023-05-14T04:35:44.820Z,74.80
2023-05-14T04:38:14.149Z,74.90
2023-05-14T04:40:42.826Z,75.10
2023-05-14T04:43:11.539Z,75.40
2023-05-14T04:45:40.937Z,75.30
2023-05-14T04:48:09.145Z,75.10
2023-05-14T04:50:38.741Z,74.90
2023-05-14T04:53:06.818Z,72.40
2023-05-14T04:55:34.960Z,73.00
2023-05-14T04:58:03.201Z,71.20
2023-05-14T05:00:31.958Z,70.60
2023-05-14T05:03:00.242Z,70.50
2023-05-14T05:05:28.571Z,69.70
2023-05-14T05:07:58.054Z,70.90
2023-05-14T05:10:26.492Z,70.80
2023-05-14T05:12:54.851Z,70.50
2023-05-14T05:15:24.705Z,68.70
2023-05-14T05:17:54.689Z,68.60
2023-05-14T05:20:23.422Z,68.60
2023-05-14T05:22:51.656Z,68.30
2023-05-14T05:25:21.332Z,67.90
2023-05-14T05:27:49.455Z,68.00
2023-05-14T05:30:17.643Z,67.60
2023-05-14T05:32:45.896Z,67.20
2023-05-14T05:35:14.034Z,66.60
2023-05-14T05:37:42.277Z,66.40
2023-05-14T05:40:10.742Z,65.80
2023-05-14T05:42:40.213Z,65.60
2023-05-14T05:45:08.801Z,64.50
2023-05-14T05:47:37.179Z,64.20
2023-05-14T05:50:05.933Z,62.20
2023-05-14T05:52:34.055Z,63.90
2023-05-14T05:55:02.185Z,63.50
2023-05-14T05:57:30.392Z,63.90
2023-05-14T05:59:59.921Z,62.00
2023-05-14T06:02:28.207Z,61.00
2023-05-14T06:04:56.383Z,61.00
2023-05-14T06:07:24.534Z,61.30
2023-05-14T06:09:52.670Z,61.60
2023-05-14T06:12:21.704Z,61.10
2023-05-14T06:14:49.797Z,58.00
2023-05-14T06:17:19.384Z,57.60
2023-05-14T06:19:47.610Z,55.90
2023-05-14T06:22:16.179Z,56.20
2023-05-14T06:24:44.395Z,53.30
2023-05-14T06:27:12.579Z,53.10
2023-05-14T06:29:40.720Z,52.10
2023-05-14T06:32:10.158Z,52.30
2023-05-14T06:34:39.646Z,50.50
2023-05-14T06:37:07.801Z,49.50
2023-05-14T06:39:35.964Z,49.00
2023-05-14T06:42:04.188Z,47.10
2023-05-14T06:44:32.531Z,46.50
2023-05-14T06:47:00.729Z,47.20
2023-05-14T06:49:28.859Z,46.30
2023-05-14T06:51:58.414Z,46.80
2023-05-14T06:54:26.593Z,46.70
2023-05-14T06:56:54.769Z,45.90
2023-05-14T06:59:22.916Z,45.70
2023-05-14T07:01:51.090Z,45.10
2023-05-14T07:04:19.372Z,43.70
2023-05-14T07:06:47.572Z,43.50
2023-05-14T07:09:17.090Z,43.30
2023-05-14T07:11:45.630Z,43.50
2023-05-14T07:14:13.833Z,43.60
2023-05-14T07:16:42.647Z,42.50
2023-05-14T07:19:10.935Z,42.90
2023-05-14T07:21:39.158Z,43.20
2023-05-14T07:24:07.491Z,41.20
2023-05-14T07:26:37.000Z,42.70
2023-05-14T07:29:05.174Z,41.60
2023-05-14T07:31:33.740Z,42.00
2023-05-14T07:34:01.907Z,41.70
2023-05-14T07:36:30.057Z,41.10
2023-05-14T07:38:58.237Z,40.80
2023-05-14T07:41:26.380Z,41.00
2023-05-14T07:43:56.345Z,40.30
2023-05-14T07:46:25.709Z,40.10
2023-05-14T07:48:53.909Z,39.90
2023-05-14T07:51:22.990Z,39.50
2023-05-14T07:53:51.186Z,39.20
2023-05-14T07:56:19.902Z,38.50
2023-05-14T07:58:48.064Z,38.40
2023-05-14T08:01:17.536Z,36.20
2023-05-14T08:03:45.793Z,36.70
2023-05-14T08:06:14.003Z,38.90
2023-05-14T08:08:42.073Z,38.30
2023-05-14T08:11:10.282Z,37.20
2023-05-14T08:13:38.677Z,39.10
2023-05-14T08:16:07.412Z,38.20
2023-05-14T08:18:36.890Z,38.50
2023-05-14T08:21:05.204Z,40.80
2023-05-14T08:23:33.315Z,41.00
2023-05-14T08:26:01.447Z,38.70
2023-05-14T08:28:29.595Z,36.70
2023-05-14T08:30:57.734Z,38.60
2023-05-14T08:33:25.954Z,39.00
2023-05-14T08:35:56.197Z,39.50
2023-05-14T08:38:24.323Z,39.60
2023-05-14T08:40:56.269Z,40.20
2023-05-14T08:43:26.813Z,42.30
2023-05-14T08:45:58.018Z,42.10
2023-05-14T08:48:27.755Z,44.30
2023-05-14T08:50:57.762Z,42.30
2023-05-14T08:53:26.009Z,41.80
2023-05-14T08:55:54.822Z,40.90
2023-05-14T08:58:23.015Z,41.50
2023-05-14T09:00:51.136Z,43.10
2023-05-14T09:03:19.612Z,43.70
2023-05-14T09:05:48.957Z,40.40
2023-05-14T09:08:18.826Z,40.30
2023-05-14T09:10:47.038Z,41.10
2023-05-14T09:13:15.627Z,39.90
2023-05-14T09:15:43.745Z,40.80
2023-05-14T09:18:11.950Z,37.80
2023-05-14T09:20:40.158Z,38.90
2023-05-14T09:23:08.235Z,41.10
2023-05-14T09:25:37.737Z,41.70
2023-05-14T09:28:07.068Z,40.80
2023-05-14T09:30:37.030Z,41.10
2023-05-14T09:33:07.451Z,41.40
2023-05-14T09:35:35.622Z,41.20
2023-05-14T09:38:03.740Z,41.10
2023-05-14T09:40:32.023Z,39.30
2023-05-14T09:43:01.905Z,40.10
2023-05-14T09:45:30.351Z,39.80
2023-05-14T09:48:00.897Z,40.30
2023-05-14T09:50:29.052Z,39.90
2023-05-14T09:52:57.152Z,39.50
2023-05-14T09:55:27.236Z,38.00
2023-05-14T09:57:55.459Z,36.90
2023-05-14T10:00:25.189Z,38.60
2023-05-14T10:02:54.376Z,36.40
2023-05-14T10:05:24.668Z,36.50
2023-05-14T10:07:54.411Z,37.60
2023-05-14T10:10:25.608Z,37.60
2023-05-14T10:12:58.096Z,37.70
2023-05-14T10:15:31.106Z,36.50
2023-05-14T10:18:01.217Z,37.30
2023-05-14T10:20:29.801Z,37.50
2023-05-14T10:22:59.148Z,37.30
2023-05-14T10:25:28.042Z,37.20
2023-05-14T10:27:56.337Z,38.10
2023-05-14T10:30:25.317Z,37.30
2023-05-14T10:33:08.533Z,38.10
2023-05-14T10:35:52.896Z,38.50
2023-05-14T10:38:23.408Z,39.20
2023-05-14T10:40:54.103Z,39.20
2023-05-14T10:43:22.951Z,36.80
2023-05-14T10:45:51.289Z,36.60
2023-05-14T10:48:21.527Z,32.70
2023-05-14T10:50:49.778Z,31.90
2023-05-14T10:53:18.098Z,32.20
2023-05-14T10:55:47.189Z,36.30
2023-05-14T10:58:15.957Z,32.70
2023-05-14T11:00:44.390Z,33.50
2023-05-14T11:03:13.633Z,33.50
2023-05-14T11:05:43.138Z,32.40
2023-05-14T11:08:11.593Z,32.30
2023-05-14T11:10:40.500Z,31.30
2023-05-14T11:13:08.846Z,30.30
2023-05-14T11:15:37.105Z,31.10
2023-05-14T11:18:06.193Z,31.40
2023-05-14T11:20:36.862Z,31.00
2023-05-14T11:23:06.335Z,32.90
2023-05-14T11:25:34.505Z,34.50
2023-05-14T11:28:02.666Z,32.30
2023-05-14T11:30:32.251Z,32.10
2023-05-14T11:33:02.002Z,34.50
2023-05-14T11:35:30.463Z,33.20
2023-05-14T11:37:58.603Z,32.70
2023-05-14T11:40:28.064Z,32.40
2023-05-14T11:42:56.608Z,31.90
2023-05-14T11:45:29.799Z,32.80
2023-05-14T11:47:58.074Z,31.30
2023-05-14T11:50:26.530Z,31.80
2023-05-14T11:52:57.410Z,32.60
2023-05-14T11:55:25.711Z,31.50
2023-05-14T11:57:55.209Z,29.90
2023-05-14T12:00:25.057Z,31.30
2023-05-14T12:02:53.625Z,31.00
2023-05-14T12:05:21.875Z,31.30
2023-05-14T12:07:50.123Z,31.80
2023-05-14T12:10:18.308Z,30.90
2023-05-14T12:12:47.017Z,31.10
2023-05-14T12:15:17.442Z,31.80
2023-05-14T12:17:50.898Z,30.60
2023-05-14T12:20:19.098Z,32.20
2023-05-14T12:22:47.253Z,31.90
2023-05-14T12:25:15.373Z,31.70
2023-05-14T12:27:45.486Z,33.30
2023-05-14T12:30:21.364Z,32.20
2023-05-14T12:32:52.764Z,33.00
2023-05-14T12:35:21.791Z,33.50
2023-05-14T12:37:49.993Z,33.80
2023-05-14T12:40:18.186Z,34.60
2023-05-14T12:42:46.360Z,34.30
2023-05-14T12:45:14.473Z,33.70
2023-05-14T12:47:42.659Z,35.10
2023-05-14T12:50:12.582Z,35.80
2023-05-14T12:52:40.726Z,36.20
2023-05-14T12:55:09.951Z,36.70
2023-05-14T12:57:38.885Z,36.60
2023-05-14T13:00:08.496Z,36.70
2023-05-14T13:02:42.588Z,36.50
2023-05-14T13:05:13.426Z,35.00
2023-05-14T13:07:41.645Z,35.60
2023-05-14T13:10:10.206Z,36.90
2023-05-14T13:12:38.640Z,37.30
2023-05-14T13:15:07.279Z,36.30
2023-05-14T13:17:35.470Z,37.50
2023-05-14T13:20:04.631Z,38.00
2023-05-14T13:22:34.193Z,37.90
2023-05-14T13:25:02.349Z,38.10
2023-05-14T13:27:30.816Z,39.20
2023-05-14T13:29:59.092Z,38.10
2023-05-14T13:32:27.283Z,37.60
2023-05-14T13:34:55.549Z,37.80
2023-05-14T13:37:23.945Z,37.90
2023-05-14T13:39:53.495Z,37.30
2023-05-14T13:42:22.008Z,37.50
2023-05-14T13:44:50.095Z,36.80
2023-05-14T13:47:18.228Z,37.10
2023-05-14T13:49:46.407Z,36.10
2023-05-14T13:52:14.812Z,36.40
2023-05-14T13:54:42.956Z,36.80
2023-05-14T13:57:12.500Z,38.10
2023-05-14T13:59:40.789Z,38.40
2023-05-14T14:02:08.992Z,39.40
2023-05-14T14:04:38.192Z,39.70
2023-05-14T14:07:06.344Z,40.10
2023-05-14T14:09:36.685Z,40.30
2023-05-14T14:12:05.209Z,40.00
2023-05-14T14:14:34.750Z,40.00
2023-05-14T14:17:02.872Z,39.60
2023-05-14T14:19:31.044Z,39.50
2023-05-14T14:21:59.173Z,39.30
2023-05-14T14:24:27.284Z,40.00
2023-05-14T14:26:55.433Z,39.70
2023-05-14T14:29:23.964Z,40.20
2023-05-14T14:31:53.576Z,40.40
2023-05-14T14:34:21.776Z,40.00
2023-05-14T14:36:50.000Z,39.70
2023-05-14T14:39:18.204Z,40.50
2023-05-14T14:41:47.673Z,40.60
2023-05-14T14:44:15.815Z,41.70
2023-05-14T14:46:43.998Z,41.80
2023-05-14T14:49:13.523Z,42.00
2023-05-14T14:51:41.747Z,42.60
2023-05-14T14:54:09.960Z,43.40
2023-05-14T14:56:39.079Z,43.90
2023-05-14T14:59:07.232Z,44.90
2023-05-14T15:01:35.642Z,45.10
2023-05-14T15:04:04.533Z,45.30
2023-05-14T15:06:33.996Z,45.00
2023-05-14T15:09:02.090Z,44.70
2023-05-14T15:11:30.352Z,44.00
2023-05-14T15:13:58.493Z,43.10
2023-05-14T15:16:26.718Z,42.40
2023-05-14T15:18:55.142Z,41.80
2023-05-14T15:21:23.419Z,41.70
2023-05-14T15:23:52.883Z,41.20
2023-05-14T15:26:21.180Z,39.90
2023-05-14T15:28:49.343Z,38.60
2023-05-14T15:31:17.516Z,38.00
2023-05-14T15:33:45.675Z,38.40
2023-05-14T15:36:13.776Z,36.50
2023-05-14T15:38:42.571Z,36.10
2023-05-14T15:41:12.167Z,37.30
2023-05-14T15:43:40.267Z,36.20
2023-05-14T15:46:08.513Z,36.20
2023-05-14T15:48:36.767Z,35.90
2023-05-14T15:51:04.931Z,35.70
2023-05-14T15:53:33.457Z,36.60
2023-05-14T15:56:01.600Z,36.90
2023-05-14T15:58:31.202Z,37.80
2023-05-14T16:00:59.365Z,38.30
2023-05-14T16:03:27.517Z,38.70
2023-05-14T16:05:55.994Z,39.30
2023-05-14T16:08:24.587Z,40.10
2023-05-14T16:10:52.745Z,40.20
2023-05-14T16:13:20.879Z,40.40
2023-05-14T16:15:51.222Z,40.60
2023-05-14T16:18:19.363Z,41.00
2023-05-14T16:20:47.525Z,41.00
2023-05-14T16:23:15.735Z,41.50
2023-05-14T16:25:43.848Z,42.00
2023-05-14T16:28:12.029Z,42.30
2023-05-14T16:30:40.157Z,41.90
2023-05-14T16:33:09.677Z,42.20
2023-05-14T16:35:37.897Z,42.10
2023-05-14T16:38:06.098Z,42.50
2023-05-14T16:40:34.266Z,42.80
2023-05-14T16:43:02.481Z,43.40
2023-05-14T16:45:32.564Z,43.00
2023-05-14T16:48:01.159Z,42.50
2023-05-14T16:50:30.749Z,41.90
2023-05-14T16:52:58.875Z,42.80
2023-05-14T16:55:27.013Z,43.50
2023-05-14T16:57:55.127Z,43.80
2023-05-14T17:00:23.326Z,44.20
2023-05-14T17:02:54.022Z,45.00
2023-05-14T17:05:22.407Z,45.40
2023-05-14T17:07:52.023Z,45.70
2023-05-14T17:10:20.168Z,46.10
2023-05-14T17:12:48.251Z,46.60
2023-05-14T17:15:16.453Z,46.80
2023-05-14T17:17:44.645Z,47.30
2023-05-14T17:20:15.219Z,48.00
2023-05-14T17:22:44.895Z,48.50
2023-05-14T17:25:15.355Z,49.00
2023-05-14T17:27:43.491Z,49.10
2023-05-14T17:30:11.990Z,49.30
2023-05-14T17:32:40.138Z,49.50
2023-05-14T17:35:09.591Z,49.60
2023-05-14T17:37:37.756Z,50.10
2023-05-14T17:40:06.772Z,50.00
2023-05-14T17:42:36.275Z,50.00
2023-05-14T17:45:04.596Z,50.30
2023-05-14T17:47:32.758Z,50.50
2023-05-14T17:50:00.912Z,50.60
2023-05-14T17:52:29.218Z,50.90
2023-05-14T17:54:57.490Z,50.70
2023-05-14T17:57:26.082Z,51.00
2023-05-14T17:59:55.584Z,51.20
2023-05-14T18:02:23.708Z,51.40
2023-05-14T18:04:51.833Z,51.50
2023-05-14T18:07:21.553Z,51.70
2023-05-14T18:09:49.746Z,52.10
2023-05-14T18:12:17.822Z,52.30
2023-05-14T18:14:45.978Z,52.20
2023-05-14T18:17:15.488Z,52.80
2023-05-14T18:19:43.630Z,52.70
2023-05-14T18:22:11.766Z,53.10
2023-05-14T18:24:39.952Z,53.50
2023-05-14T18:27:08.077Z,53.60
2023-05-14T18:29:36.225Z,53.50
2023-05-14T18:32:04.448Z,53.40
2023-05-14T18:34:33.929Z,53.50
2023-05-14T18:37:02.132Z,53.90
2023-05-14T18:39:30.328Z,54.40
2023-05-14T18:41:58.447Z,54.80
2023-05-14T18:44:26.588Z,54.70
2023-05-14T18:46:55.505Z,54.90
2023-05-14T18:49:23.633Z,55.60
2023-05-14T18:51:53.161Z,55.70
2023-05-14T18:54:21.276Z,56.60
2023-05-14T18:56:49.436Z,56.60
2023-05-14T18:59:17.635Z,56.60
2023-05-14T19:01:45.820Z,56.60
2023-05-14T19:04:14.060Z,57.10
2023-05-14T19:06:45.588Z,57.10
2023-05-14T19:09:20.835Z,57.50
2023-05-14T19:11:49.107Z,57.80
2023-05-14T19:14:17.564Z,57.90
2023-05-14T19:16:45.712Z,58.40
2023-05-14T19:19:14.028Z,58.40
2023-05-14T19:21:42.186Z,58.90
2023-05-14T19:24:10.314Z,59.10
2023-05-14T19:26:39.936Z,59.30
2023-05-14T19:29:08.059Z,59.10
2023-05-14T19:31:36.208Z,59.30
2023-05-14T19:34:04.666Z,59.80
2023-05-14T19:36:32.819Z,60.00
2023-05-14T19:39:00.957Z,59.90
2023-05-14T19:41:29.450Z,60.60
2023-05-14T19:43:58.943Z,60.60
2023-05-14T19:46:27.255Z,60.90
2023-05-14T19:48:55.468Z,61.00
2023-05-14T19:51:23.591Z,61.10
2023-05-14T19:53:51.707Z,61.30
2023-05-14T19:56:19.932Z,61.50
2023-05-14T19:58:47.989Z,62.20
2023-05-14T20:01:17.752Z,62.30
2023-05-14T20:03:45.944Z,62.20
2023-05-14T20:06:14.123Z,62.50
2023-05-14T20:08:42.320Z,62.70
2023-05-14T20:11:10.409Z,62.60
2023-05-14T20:13:38.651Z,63.00
2023-05-14T20:16:07.098Z,63.10
2023-05-14T20:18:36.684Z,63.30
2023-05-14T20:21:05.489Z,63.60
2023-05-14T20:23:33.674Z,63.80
2023-05-14T20:26:03.905Z,63.80
2023-05-14T20:28:32.018Z,63.90
2023-05-14T20:31:01.153Z,64.00
2023-05-14T20:33:29.369Z,64.10
2023-05-14T20:35:58.872Z,64.00
2023-05-14T20:38:29.351Z,63.80
2023-05-14T20:40:57.619Z,63.80
2023-05-14T20:43:27.301Z,64.30
2023-05-14T20:45:55.554Z,65.00
2023-05-14T20:48:23.741Z,65.10
2023-05-14T20:50:51.911Z,65.40
2023-05-14T20:53:21.473Z,65.20
2023-05-14T20:55:49.626Z,65.10
2023-05-14T20:58:17.745Z,64.60
2023-05-14T21:00:46.025Z,64.60
2023-05-14T21:03:14.220Z,64.40
2023-05-14T21:05:43.626Z,64.60
2023-05-14T21:08:12.292Z,64.60
2023-05-14T21:10:41.747Z,64.70
2023-05-14T21:13:09.906Z,65.00
2023-05-14T21:15:38.301Z,65.00
2023-05-14T21:18:06.883Z,65.90
2023-05-14T21:20:35.048Z,65.90
2023-05-14T21:23:03.175Z,66.20
2023-05-14T21:25:31.302Z,66.50
2023-05-14T21:28:00.950Z,66.70
2023-05-14T21:30:29.104Z,67.60
2023-05-14T21:32:57.260Z,67.70
2023-05-14T21:35:25.599Z,67.90
2023-05-14T21:37:53.998Z,67.90
2023-05-14T21:40:22.177Z,68.00
2023-05-14T21:42:50.897Z,68.40
2023-05-14T21:45:22.874Z,68.60
2023-05-14T21:47:51.766Z,68.70
2023-05-14T21:50:19.982Z,68.70
2023-05-14T21:52:48.239Z,68.90
2023-05-14T21:55:19.528Z,68.60
2023-05-14T21:57:47.768Z,68.50
2023-05-14T22:00:23.128Z,68.70
2023-05-14T22:02:52.890Z,68.70
2023-05-14T22:05:21.278Z,68.90
2023-05-14T22:07:49.663Z,69.10
2023-05-14T22:10:17.824Z,69.00
2023-05-14T22:12:46.811Z,69.50
2023-05-14T22:15:15.022Z,69.50
2023-05-14T22:17:43.358Z,69.30
2023-05-14T22:20:13.057Z,69.40
2023-05-14T22:22:41.218Z,69.50
2023-05-14T22:25:09.787Z,69.50
2023-05-14T22:27:38.016Z,69.80
2023-05-14T22:30:06.847Z,69.90
2023-05-14T22:32:35.024Z,70.30
2023-05-14T22:35:03.230Z,70.40
2023-05-14T22:37:32.762Z,70.40
2023-05-14T22:40:02.073Z,70.50
2023-05-14T22:42:30.186Z,70.30
2023-05-14T22:44:58.374Z,70.40
2023-05-14T22:47:26.877Z,70.50
2023-05-14T22:49:55.033Z,70.50
2023-05-14T22:52:23.221Z,70.70
2023-05-14T22:54:53.236Z,71.00
2023-05-14T22:57:21.731Z,71.20
2023-05-14T22:59:50.007Z,71.20
2023-05-14T23:02:18.143Z,71.30
2023-05-14T23:04:46.350Z,71.60
2023-05-14T23:07:14.547Z,71.50
2023-05-14T23:09:42.669Z,71.50
2023-05-14T23:12:12.158Z,71.50
2023-05-14T23:14:40.318Z,71.50
2023-05-14T23:17:08.471Z,71.60
2023-05-14T23:19:36.900Z,71.50
2023-05-14T23:22:05.209Z,71.70
2023-05-14T23:24:33.356Z,71.80
2023-05-14T23:27:01.450Z,72.10
2023-05-14T23:29:30.921Z,72.30
2023-05-14T23:31:59.229Z,72.30
2023-05-14T23:34:27.388Z,72.40
2023-05-14T23:36:55.609Z,72.30
2023-05-14T23:39:23.736Z,72.50
2023-05-14T23:41:51.909Z,72.30
2023-05-14T23:44:20.145Z,72.50
2023-05-14T23:46:49.922Z,72.50
2023-05-14T23:49:18.115Z,72.60
2023-05-14T23:51:46.271Z,72.40
2023-05-14T23:54:14.446Z,72.30
2023-05-14T23:56:42.560Z,72.30
2023-05-14T23:59:11.692Z,72.50
